sensor_id;sensor_type;location;lat;lon;timestamp;P1;durP1;ratioP1;P2;durP2;ratioP2
6928;SDS011;3504;52.616;13.238;2024-03-06T00:03:53;41.73;;;23.50;;
6928;SDS011;3504;52.616;13.238;2024-03-06T00:08:54;40.87;;;24.17;;
6928;SDS011;3504;52.616;13.238;2024-03-06T00:13:54;39.30;;;23.30;;
6928;SDS011;3504;52.616;13.238;2024-03-06T00:18:55;35.33;;;22.47;;
6928;SDS011;3504;52.616;13.238;2024-03-06T00:23:55;42.13;;;23.33;;
6928;SDS011;3504;52.616;13.238;2024-03-06T00:28:56;34.10;;;22.13;;
6928;SDS011;3504;52.616;13.238;2024-03-06T00:33:57;33.83;;;21.53;;
6928;SDS011;3504;52.616;13.238;2024-03-06T00:38:58;37.63;;;22.17;;
6928;SDS011;3504;52.616;13.238;2024-03-06T00:43:59;36.93;;;22.40;;
6928;SDS011;3504;52.616;13.238;2024-03-06T00:48:59;34.30;;;21.73;;
6928;SDS011;3504;52.616;13.238;2024-03-06T00:54:03;35.07;;;21.10;;
6928;SDS011;3504;52.616;13.238;2024-03-06T00:59:04;33.03;;;20.50;;
6928;SDS011;3504;52.616;13.238;2024-03-06T01:04:05;34.10;;;22.13;;
6928;SDS011;3504;52.616;13.238;2024-03-06T01:09:06;36.47;;;22.17;;
6928;SDS011;3504;52.616;13.238;2024-03-06T01:14:07;33.77;;;21.53;;
6928;SDS011;3504;52.616;13.238;2024-03-06T01:19:07;33.03;;;20.93;;
6928;SDS011;3504;52.616;13.238;2024-03-06T01:24:08;35.87;;;21.67;;
6928;SDS011;3504;52.616;13.238;2024-03-06T01:29:09;32.90;;;20.70;;
6928;SDS011;3504;52.616;13.238;2024-03-06T01:34:09;34.87;;;21.30;;
6928;SDS011;3504;52.616;13.238;2024-03-06T01:39:10;34.97;;;21.00;;
6928;SDS011;3504;52.616;13.238;2024-03-06T01:44:11;35.83;;;21.77;;
6928;SDS011;3504;52.616;13.238;2024-03-06T01:49:12;36.03;;;21.50;;
6928;SDS011;3504;52.616;13.238;2024-03-06T01:54:14;37.10;;;21.53;;
6928;SDS011;3504;52.616;13.238;2024-03-06T01:59:15;34.03;;;20.93;;
6928;SDS011;3504;52.616;13.238;2024-03-06T02:04:18;31.53;;;18.83;;
6928;SDS011;3504;52.616;13.238;2024-03-06T02:09:20;32.83;;;19.77;;
6928;SDS011;3504;52.616;13.238;2024-03-06T02:14:21;34.47;;;19.90;;
6928;SDS011;3504;52.616;13.238;2024-03-06T02:19:21;31.50;;;19.37;;
6928;SDS011;3504;52.616;13.238;2024-03-06T02:24:22;28.77;;;19.33;;
6928;SDS011;3504;52.616;13.238;2024-03-06T02:29:23;30.73;;;19.43;;
6928;SDS011;3504;52.616;13.238;2024-03-06T02:34:24;31.20;;;19.17;;
6928;SDS011;3504;52.616;13.238;2024-03-06T02:39:24;30.57;;;19.40;;
6928;SDS011;3504;52.616;13.238;2024-03-06T02:44:25;30.33;;;17.77;;
6928;SDS011;3504;52.616;13.238;2024-03-06T02:49:26;29.90;;;18.57;;
6928;SDS011;3504;52.616;13.238;2024-03-06T02:54:26;30.20;;;18.33;;
6928;SDS011;3504;52.616;13.238;2024-03-06T02:59:27;35.20;;;21.13;;
6928;SDS011;3504;52.616;13.238;2024-03-06T03:04:27;32.60;;;18.53;;
6928;SDS011;3504;52.616;13.238;2024-03-06T03:09:28;34.70;;;20.80;;
6928;SDS011;3504;52.616;13.238;2024-03-06T03:14:28;32.50;;;18.87;;
6928;SDS011;3504;52.616;13.238;2024-03-06T03:19:29;29.53;;;18.23;;
6928;SDS011;3504;52.616;13.238;2024-03-06T03:24:30;33.33;;;20.00;;
6928;SDS011;3504;52.616;13.238;2024-03-06T03:29:30;27.10;;;18.07;;
6928;SDS011;3504;52.616;13.238;2024-03-06T03:34:31;36.50;;;19.50;;
6928;SDS011;3504;52.616;13.238;2024-03-06T03:39:32;32.03;;;18.30;;
6928;SDS011;3504;52.616;13.238;2024-03-06T03:44:33;31.73;;;18.73;;
6928;SDS011;3504;52.616;13.238;2024-03-06T03:49:36;28.63;;;18.50;;
6928;SDS011;3504;52.616;13.238;2024-03-06T03:54:37;26.47;;;17.33;;
6928;SDS011;3504;52.616;13.238;2024-03-06T03:59:38;24.87;;;16.93;;
6928;SDS011;3504;52.616;13.238;2024-03-06T04:04:38;27.53;;;17.00;;
6928;SDS011;3504;52.616;13.238;2024-03-06T04:09:39;29.93;;;18.33;;
6928;SDS011;3504;52.616;13.238;2024-03-06T04:14:40;26.83;;;16.17;;
6928;SDS011;3504;52.616;13.238;2024-03-06T04:19:40;31.33;;;17.43;;
6928;SDS011;3504;52.616;13.238;2024-03-06T04:24:41;28.83;;;16.57;;
6928;SDS011;3504;52.616;13.238;2024-03-06T04:29:42;28.87;;;17.07;;
6928;SDS011;3504;52.616;13.238;2024-03-06T04:34:43;26.37;;;15.53;;
6928;SDS011;3504;52.616;13.238;2024-03-06T04:39:43;28.20;;;16.83;;
6928;SDS011;3504;52.616;13.238;2024-03-06T04:44:45;28.17;;;16.93;;
6928;SDS011;3504;52.616;13.238;2024-03-06T04:49:46;27.40;;;16.50;;
6928;SDS011;3504;52.616;13.238;2024-03-06T04:54:46;28.00;;;17.27;;
6928;SDS011;3504;52.616;13.238;2024-03-06T04:59:47;25.97;;;16.70;;
6928;SDS011;3504;52.616;13.238;2024-03-06T05:04:47;30.73;;;17.57;;
6928;SDS011;3504;52.616;13.238;2024-03-06T05:09:48;31.63;;;17.47;;
6928;SDS011;3504;52.616;13.238;2024-03-06T05:14:48;30.33;;;18.10;;
6928;SDS011;3504;52.616;13.238;2024-03-06T05:19:49;27.03;;;17.70;;
6928;SDS011;3504;52.616;13.238;2024-03-06T05:24:50;32.50;;;18.43;;
6928;SDS011;3504;52.616;13.238;2024-03-06T05:29:51;34.90;;;18.13;;
6928;SDS011;3504;52.616;13.238;2024-03-06T05:34:52;31.83;;;18.70;;
6928;SDS011;3504;52.616;13.238;2024-03-06T05:39:52;28.37;;;17.13;;
6928;SDS011;3504;52.616;13.238;2024-03-06T05:44:54;29.77;;;17.30;;
6928;SDS011;3504;52.616;13.238;2024-03-06T05:49:55;28.53;;;16.53;;
6928;SDS011;3504;52.616;13.238;2024-03-06T05:54:56;27.80;;;16.87;;
6928;SDS011;3504;52.616;13.238;2024-03-06T05:59:56;27.20;;;17.27;;
6928;SDS011;3504;52.616;13.238;2024-03-06T06:04:57;28.43;;;16.40;;
6928;SDS011;3504;52.616;13.238;2024-03-06T06:09:57;30.67;;;17.13;;
6928;SDS011;3504;52.616;13.238;2024-03-06T06:14:58;28.03;;;16.67;;
6928;SDS011;3504;52.616;13.238;2024-03-06T06:19:59;30.23;;;16.67;;
6928;SDS011;3504;52.616;13.238;2024-03-06T06:24:59;29.60;;;17.10;;
6928;SDS011;3504;52.616;13.238;2024-03-06T06:30:00;28.17;;;17.20;;
6928;SDS011;3504;52.616;13.238;2024-03-06T06:35:00;31.47;;;17.80;;
6928;SDS011;3504;52.616;13.238;2024-03-06T06:40:01;26.30;;;17.03;;
6928;SDS011;3504;52.616;13.238;2024-03-06T06:45:06;30.03;;;18.50;;
6928;SDS011;3504;52.616;13.238;2024-03-06T06:50:07;32.77;;;18.47;;
6928;SDS011;3504;52.616;13.238;2024-03-06T06:55:09;31.47;;;18.30;;
6928;SDS011;3504;52.616;13.238;2024-03-06T07:00:11;33.70;;;20.30;;
6928;SDS011;3504;52.616;13.238;2024-03-06T07:05:12;34.03;;;19.47;;
6928;SDS011;3504;52.616;13.238;2024-03-06T07:10:12;30.40;;;18.03;;
6928;SDS011;3504;52.616;13.238;2024-03-06T07:15:14;34.73;;;20.07;;
6928;SDS011;3504;52.616;13.238;2024-03-06T07:20:14;36.03;;;21.00;;
6928;SDS011;3504;52.616;13.238;2024-03-06T07:25:15;41.53;;;21.60;;
6928;SDS011;3504;52.616;13.238;2024-03-06T07:30:15;38.10;;;21.50;;
6928;SDS011;3504;52.616;13.238;2024-03-06T07:35:17;35.53;;;21.37;;
6928;SDS011;3504;52.616;13.238;2024-03-06T07:40:18;36.10;;;23.93;;
6928;SDS011;3504;52.616;13.238;2024-03-06T07:45:18;36.17;;;21.87;;
6928;SDS011;3504;52.616;13.238;2024-03-06T07:50:23;38.40;;;22.27;;
6928;SDS011;3504;52.616;13.238;2024-03-06T07:55:23;37.83;;;23.87;;
6928;SDS011;3504;52.616;13.238;2024-03-06T08:00:24;35.60;;;21.80;;
6928;SDS011;3504;52.616;13.238;2024-03-06T08:05:24;36.43;;;21.13;;
6928;SDS011;3504;52.616;13.238;2024-03-06T08:10:25;32.83;;;21.67;;
6928;SDS011;3504;52.616;13.238;2024-03-06T08:15:25;35.67;;;22.00;;
6928;SDS011;3504;52.616;13.238;2024-03-06T08:20:26;31.20;;;20.83;;
6928;SDS011;3504;52.616;13.238;2024-03-06T08:25:27;31.37;;;19.63;;
6928;SDS011;3504;52.616;13.238;2024-03-06T08:30:28;32.33;;;20.37;;
6928;SDS011;3504;52.616;13.238;2024-03-06T08:35:30;32.17;;;20.40;;
6928;SDS011;3504;52.616;13.238;2024-03-06T08:40:32;33.50;;;19.50;;
6928;SDS011;3504;52.616;13.238;2024-03-06T08:45:33;32.27;;;18.70;;
6928;SDS011;3504;52.616;13.238;2024-03-06T08:50:34;32.13;;;18.47;;
6928;SDS011;3504;52.616;13.238;2024-03-06T08:55:35;23.27;;;16.37;;
6928;SDS011;3504;52.616;13.238;2024-03-06T09:00:36;25.67;;;15.97;;
6928;SDS011;3504;52.616;13.238;2024-03-06T09:05:37;23.60;;;15.60;;
6928;SDS011;3504;52.616;13.238;2024-03-06T09:10:38;21.20;;;14.00;;
6928;SDS011;3504;52.616;13.238;2024-03-06T09:15:41;18.33;;;13.40;;
6928;SDS011;3504;52.616;13.238;2024-03-06T09:20:41;20.40;;;14.37;;
6928;SDS011;3504;52.616;13.238;2024-03-06T09:25:43;18.27;;;12.80;;
6928;SDS011;3504;52.616;13.238;2024-03-06T09:30:43;18.60;;;13.10;;
6928;SDS011;3504;52.616;13.238;2024-03-06T09:35:44;18.40;;;14.00;;
6928;SDS011;3504;52.616;13.238;2024-03-06T09:40:45;15.63;;;12.40;;
6928;SDS011;3504;52.616;13.238;2024-03-06T09:45:47;20.47;;;13.83;;
6928;SDS011;3504;52.616;13.238;2024-03-06T09:50:50;16.70;;;12.30;;
6928;SDS011;3504;52.616;13.238;2024-03-06T09:55:52;21.17;;;13.53;;
6928;SDS011;3504;52.616;13.238;2024-03-06T10:00:56;17.77;;;12.40;;
6928;SDS011;3504;52.616;13.238;2024-03-06T10:06:00;28.83;;;20.00;;
6928;SDS011;3504;52.616;13.238;2024-03-06T10:11:00;26.90;;;17.80;;
6928;SDS011;3504;52.616;13.238;2024-03-06T10:16:02;18.93;;;13.90;;
6928;SDS011;3504;52.616;13.238;2024-03-06T10:21:08;19.00;;;14.33;;
6928;SDS011;3504;52.616;13.238;2024-03-06T10:26:09;19.97;;;15.30;;
6928;SDS011;3504;52.616;13.238;2024-03-06T10:31:09;20.87;;;15.50;;
6928;SDS011;3504;52.616;13.238;2024-03-06T10:36:10;19.93;;;14.47;;
6928;SDS011;3504;52.616;13.238;2024-03-06T10:41:12;20.47;;;15.40;;
6928;SDS011;3504;52.616;13.238;2024-03-06T10:46:14;23.83;;;17.53;;
6928;SDS011;3504;52.616;13.238;2024-03-06T10:51:20;26.53;;;18.33;;
6928;SDS011;3504;52.616;13.238;2024-03-06T10:56:21;31.17;;;20.40;;
6928;SDS011;3504;52.616;13.238;2024-03-06T11:01:22;29.80;;;19.97;;
6928;SDS011;3504;52.616;13.238;2024-03-06T11:06:25;27.60;;;20.53;;
6928;SDS011;3504;52.616;13.238;2024-03-06T11:11:26;29.63;;;20.17;;
6928;SDS011;3504;52.616;13.238;2024-03-06T11:16:27;25.23;;;18.90;;
6928;SDS011;3504;52.616;13.238;2024-03-06T11:21:30;23.97;;;18.33;;
6928;SDS011;3504;52.616;13.238;2024-03-06T11:26:31;22.97;;;17.43;;
6928;SDS011;3504;52.616;13.238;2024-03-06T11:31:35;25.50;;;18.67;;
6928;SDS011;3504;52.616;13.238;2024-03-06T11:36:36;25.93;;;19.03;;
6928;SDS011;3504;52.616;13.238;2024-03-06T11:52:01;22.37;;;16.77;;
6928;SDS011;3504;52.616;13.238;2024-03-06T11:57:08;22.13;;;16.77;;
6928;SDS011;3504;52.616;13.238;2024-03-06T12:02:10;21.90;;;17.10;;
6928;SDS011;3504;52.616;13.238;2024-03-06T12:07:12;19.77;;;14.23;;
6928;SDS011;3504;52.616;13.238;2024-03-06T12:12:13;16.93;;;13.07;;
6928;SDS011;3504;52.616;13.238;2024-03-06T12:17:14;16.30;;;12.40;;
6928;SDS011;3504;52.616;13.238;2024-03-06T12:22:14;15.87;;;12.90;;
6928;SDS011;3504;52.616;13.238;2024-03-06T12:27:15;20.37;;;15.40;;
6928;SDS011;3504;52.616;13.238;2024-03-06T12:32:22;19.77;;;14.60;;
6928;SDS011;3504;52.616;13.238;2024-03-06T12:37:29;22.07;;;14.63;;
6928;SDS011;3504;52.616;13.238;2024-03-06T12:42:31;20.30;;;14.90;;
6928;SDS011;3504;52.616;13.238;2024-03-06T12:47:32;21.07;;;15.60;;
6928;SDS011;3504;52.616;13.238;2024-03-06T12:52:36;22.50;;;15.27;;
6928;SDS011;3504;52.616;13.238;2024-03-06T12:57:40;25.87;;;15.90;;
6928;SDS011;3504;52.616;13.238;2024-03-06T13:02:43;26.60;;;15.60;;
6928;SDS011;3504;52.616;13.238;2024-03-06T13:07:46;25.10;;;15.57;;
6928;SDS011;3504;52.616;13.238;2024-03-06T13:12:46;22.80;;;15.87;;
6928;SDS011;3504;52.616;13.238;2024-03-06T13:17:46;23.83;;;16.40;;
6928;SDS011;3504;52.616;13.238;2024-03-06T13:22:47;24.30;;;16.07;;
6928;SDS011;3504;52.616;13.238;2024-03-06T13:27:48;26.30;;;17.73;;
6928;SDS011;3504;52.616;13.238;2024-03-06T13:32:49;31.43;;;17.70;;
6928;SDS011;3504;52.616;13.238;2024-03-06T13:37:50;27.67;;;17.03;;
6928;SDS011;3504;52.616;13.238;2024-03-06T13:42:51;24.93;;;16.53;;
6928;SDS011;3504;52.616;13.238;2024-03-06T13:47:51;29.30;;;17.10;;
6928;SDS011;3504;52.616;13.238;2024-03-06T13:52:52;29.80;;;18.00;;
6928;SDS011;3504;52.616;13.238;2024-03-06T13:57:52;28.67;;;17.10;;
6928;SDS011;3504;52.616;13.238;2024-03-06T14:02:53;27.07;;;17.03;;
6928;SDS011;3504;52.616;13.238;2024-03-06T14:07:53;28.77;;;18.13;;
6928;SDS011;3504;52.616;13.238;2024-03-06T14:12:55;28.20;;;18.33;;
6928;SDS011;3504;52.616;13.238;2024-03-06T14:17:57;24.87;;;16.47;;
6928;SDS011;3504;52.616;13.238;2024-03-06T14:22:57;27.50;;;16.60;;
6928;SDS011;3504;52.616;13.238;2024-03-06T14:27:58;25.90;;;16.07;;
6928;SDS011;3504;52.616;13.238;2024-03-06T14:32:59;28.07;;;16.73;;
6928;SDS011;3504;52.616;13.238;2024-03-06T14:37:59;31.40;;;17.53;;
6928;SDS011;3504;52.616;13.238;2024-03-06T14:43:00;28.53;;;18.40;;
6928;SDS011;3504;52.616;13.238;2024-03-06T14:48:01;30.00;;;17.27;;
6928;SDS011;3504;52.616;13.238;2024-03-06T14:53:02;32.07;;;18.37;;
6928;SDS011;3504;52.616;13.238;2024-03-06T14:58:03;32.00;;;18.87;;
6928;SDS011;3504;52.616;13.238;2024-03-06T15:03:03;29.00;;;17.10;;
6928;SDS011;3504;52.616;13.238;2024-03-06T15:08:04;30.30;;;17.90;;
6928;SDS011;3504;52.616;13.238;2024-03-06T15:13:05;27.73;;;16.60;;
6928;SDS011;3504;52.616;13.238;2024-03-06T15:18:05;24.57;;;14.97;;
6928;SDS011;3504;52.616;13.238;2024-03-06T15:23:06;24.73;;;14.57;;
6928;SDS011;3504;52.616;13.238;2024-03-06T15:28:06;23.50;;;14.07;;
6928;SDS011;3504;52.616;13.238;2024-03-06T15:33:07;20.10;;;13.57;;
6928;SDS011;3504;52.616;13.238;2024-03-06T15:38:08;22.07;;;13.87;;
6928;SDS011;3504;52.616;13.238;2024-03-06T15:43:09;23.60;;;14.83;;
6928;SDS011;3504;52.616;13.238;2024-03-06T15:48:10;30.60;;;16.30;;
6928;SDS011;3504;52.616;13.238;2024-03-06T15:53:14;25.80;;;15.90;;
6928;SDS011;3504;52.616;13.238;2024-03-06T15:58:14;23.93;;;15.70;;
6928;SDS011;3504;52.616;13.238;2024-03-06T16:03:15;22.23;;;14.97;;
6928;SDS011;3504;52.616;13.238;2024-03-06T16:08:15;43.73;;;29.57;;
6928;SDS011;3504;52.616;13.238;2024-03-06T16:13:16;36.07;;;23.30;;
6928;SDS011;3504;52.616;13.238;2024-03-06T16:18:16;23.13;;;15.73;;
6928;SDS011;3504;52.616;13.238;2024-03-06T16:23:17;18.67;;;13.27;;
6928;SDS011;3504;52.616;13.238;2024-03-06T16:28:18;19.87;;;13.10;;
6928;SDS011;3504;52.616;13.238;2024-03-06T16:33:19;15.33;;;12.60;;
6928;SDS011;3504;52.616;13.238;2024-03-06T16:38:20;18.07;;;12.50;;
6928;SDS011;3504;52.616;13.238;2024-03-06T16:43:20;18.00;;;13.43;;
6928;SDS011;3504;52.616;13.238;2024-03-06T16:48:20;15.97;;;12.50;;
6928;SDS011;3504;52.616;13.238;2024-03-06T16:53:21;17.63;;;12.43;;
6928;SDS011;3504;52.616;13.238;2024-03-06T16:58:21;15.77;;;11.83;;
6928;SDS011;3504;52.616;13.238;2024-03-06T17:03:22;18.30;;;13.40;;
6928;SDS011;3504;52.616;13.238;2024-03-06T17:08:22;16.70;;;13.13;;
6928;SDS011;3504;52.616;13.238;2024-03-06T17:13:23;18.93;;;13.60;;
6928;SDS011;3504;52.616;13.238;2024-03-06T17:18:23;18.03;;;14.40;;
6928;SDS011;3504;52.616;13.238;2024-03-06T17:23:24;20.60;;;14.70;;
6928;SDS011;3504;52.616;13.238;2024-03-06T17:28:28;18.57;;;14.87;;
6928;SDS011;3504;52.616;13.238;2024-03-06T17:33:30;21.13;;;16.10;;
6928;SDS011;3504;52.616;13.238;2024-03-06T17:38:30;19.00;;;14.13;;
6928;SDS011;3504;52.616;13.238;2024-03-06T17:43:31;21.03;;;15.73;;
6928;SDS011;3504;52.616;13.238;2024-03-06T17:48:32;17.60;;;14.57;;
6928;SDS011;3504;52.616;13.238;2024-03-06T17:53:32;20.20;;;15.90;;
6928;SDS011;3504;52.616;13.238;2024-03-06T17:58:36;23.43;;;16.53;;
6928;SDS011;3504;52.616;13.238;2024-03-06T18:03:36;20.73;;;16.87;;
6928;SDS011;3504;52.616;13.238;2024-03-06T18:08:39;24.10;;;17.40;;
6928;SDS011;3504;52.616;13.238;2024-03-06T18:13:40;21.50;;;15.90;;
6928;SDS011;3504;52.616;13.238;2024-03-06T18:18:40;22.63;;;17.30;;
6928;SDS011;3504;52.616;13.238;2024-03-06T18:23:41;22.37;;;16.73;;
6928;SDS011;3504;52.616;13.238;2024-03-06T18:28:41;21.77;;;16.73;;
6928;SDS011;3504;52.616;13.238;2024-03-06T18:33:42;21.00;;;16.93;;
6928;SDS011;3504;52.616;13.238;2024-03-06T18:38:43;22.93;;;17.37;;
6928;SDS011;3504;52.616;13.238;2024-03-06T18:43:44;19.93;;;16.27;;
6928;SDS011;3504;52.616;13.238;2024-03-06T18:48:45;21.07;;;15.77;;
6928;SDS011;3504;52.616;13.238;2024-03-06T18:53:45;18.37;;;15.93;;
6928;SDS011;3504;52.616;13.238;2024-03-06T18:58:46;21.77;;;16.50;;
6928;SDS011;3504;52.616;13.238;2024-03-06T19:03:46;20.27;;;16.67;;
6928;SDS011;3504;52.616;13.238;2024-03-06T19:08:47;20.33;;;16.37;;
6928;SDS011;3504;52.616;13.238;2024-03-06T19:13:48;20.30;;;16.73;;
6928;SDS011;3504;52.616;13.238;2024-03-06T19:18:50;21.83;;;16.50;;
6928;SDS011;3504;52.616;13.238;2024-03-06T19:23:50;19.80;;;15.50;;
6928;SDS011;3504;52.616;13.238;2024-03-06T19:28:51;19.37;;;15.33;;
6928;SDS011;3504;52.616;13.238;2024-03-06T19:33:52;20.97;;;17.00;;
6928;SDS011;3504;52.616;13.238;2024-03-06T19:38:52;19.20;;;15.47;;
6928;SDS011;3504;52.616;13.238;2024-03-06T19:43:53;21.17;;;16.73;;
6928;SDS011;3504;52.616;13.238;2024-03-06T19:48:53;21.00;;;16.93;;
6928;SDS011;3504;52.616;13.238;2024-03-06T19:53:54;20.43;;;15.87;;
6928;SDS011;3504;52.616;13.238;2024-03-06T19:58:55;20.70;;;16.73;;
6928;SDS011;3504;52.616;13.238;2024-03-06T20:03:56;27.33;;;18.63;;
6928;SDS011;3504;52.616;13.238;2024-03-06T20:08:57;27.03;;;19.80;;
6928;SDS011;3504;52.616;13.238;2024-03-06T20:13:58;30.47;;;21.17;;
6928;SDS011;3504;52.616;13.238;2024-03-06T20:18:59;28.13;;;20.60;;
6928;SDS011;3504;52.616;13.238;2024-03-06T20:23:59;30.70;;;21.03;;
6928;SDS011;3504;52.616;13.238;2024-03-06T20:29:01;30.53;;;21.77;;
6928;SDS011;3504;52.616;13.238;2024-03-06T20:34:01;30.07;;;21.33;;
6928;SDS011;3504;52.616;13.238;2024-03-06T20:39:02;36.77;;;24.20;;
6928;SDS011;3504;52.616;13.238;2024-03-06T20:44:02;36.67;;;25.00;;
6928;SDS011;3504;52.616;13.238;2024-03-06T20:49:03;33.00;;;22.93;;
6928;SDS011;3504;52.616;13.238;2024-03-06T20:54:04;33.13;;;23.30;;
6928;SDS011;3504;52.616;13.238;2024-03-06T20:59:04;33.10;;;23.00;;
6928;SDS011;3504;52.616;13.238;2024-03-06T21:04:05;33.17;;;22.47;;
6928;SDS011;3504;52.616;13.238;2024-03-06T21:09:05;37.90;;;25.00;;
6928;SDS011;3504;52.616;13.238;2024-03-06T21:14:06;36.37;;;24.47;;
6928;SDS011;3504;52.616;13.238;2024-03-06T21:19:06;40.43;;;26.50;;
6928;SDS011;3504;52.616;13.238;2024-03-06T21:24:07;40.00;;;25.90;;
6928;SDS011;3504;52.616;13.238;2024-03-06T21:29:09;40.13;;;25.70;;
6928;SDS011;3504;52.616;13.238;2024-03-06T21:34:09;38.70;;;25.73;;
6928;SDS011;3504;52.616;13.238;2024-03-06T21:39:11;38.47;;;25.13;;
6928;SDS011;3504;52.616;13.238;2024-03-06T21:44:13;40.07;;;25.70;;
6928;SDS011;3504;52.616;13.238;2024-03-06T21:49:14;39.23;;;26.73;;
6928;SDS011;3504;52.616;13.238;2024-03-06T21:54:17;44.67;;;27.87;;
6928;SDS011;3504;52.616;13.238;2024-03-06T21:59:17;50.60;;;29.30;;
6928;SDS011;3504;52.616;13.238;2024-03-06T22:04:18;46.77;;;29.63;;
6928;SDS011;3504;52.616;13.238;2024-03-06T22:09:18;54.80;;;30.13;;
6928;SDS011;3504;52.616;13.238;2024-03-06T22:14:19;56.50;;;30.60;;
6928;SDS011;3504;52.616;13.238;2024-03-06T22:19:20;53.03;;;30.77;;
6928;SDS011;3504;52.616;13.238;2024-03-06T22:24:21;53.13;;;30.10;;
6928;SDS011;3504;52.616;13.238;2024-03-06T22:29:22;61.30;;;32.33;;
6928;SDS011;3504;52.616;13.238;2024-03-06T22:34:23;54.03;;;31.13;;
6928;SDS011;3504;52.616;13.238;2024-03-06T22:39:23;63.73;;;33.23;;
6928;SDS011;3504;52.616;13.238;2024-03-06T22:44:24;61.60;;;33.30;;
6928;SDS011;3504;52.616;13.238;2024-03-06T22:49:24;61.17;;;31.97;;
6928;SDS011;3504;52.616;13.238;2024-03-06T22:54:25;66.20;;;35.23;;
6928;SDS011;3504;52.616;13.238;2024-03-06T22:59:25;69.77;;;34.30;;
6928;SDS011;3504;52.616;13.238;2024-03-06T23:04:26;73.40;;;35.87;;
6928;SDS011;3504;52.616;13.238;2024-03-06T23:09:26;67.30;;;33.53;;
6928;SDS011;3504;52.616;13.238;2024-03-06T23:14:30;79.97;;;37.07;;
6928;SDS011;3504;52.616;13.238;2024-03-06T23:19:32;81.93;;;37.90;;
6928;SDS011;3504;52.616;13.238;2024-03-06T23:24:33;79.27;;;37.77;;
6928;SDS011;3504;52.616;13.238;2024-03-06T23:29:33;72.77;;;37.00;;
6928;SDS011;3504;52.616;13.238;2024-03-06T23:34:34;86.20;;;36.77;;
6928;SDS011;3504;52.616;13.238;2024-03-06T23:39:34;93.97;;;38.00;;
6928;SDS011;3504;52.616;13.238;2024-03-06T23:44:35;99.80;;;39.50;;
6928;SDS011;3504;52.616;13.238;2024-03-06T23:49:35;109.27;;;40.40;;
6928;SDS011;3504;52.616;13.238;2024-03-06T23:54:36;99.67;;;39.70;;
6928;SDS011;3504;52.616;13.238;2024-03-06T23:59:37;119.17;;;41.97;;
